createdAt,value
2023-04-15T00:02:18.532Z,100185.40
2023-04-15T00:04:51.999Z,100187.97
2023-04-15T00:07:25.450Z,100190.97
2023-04-15T00:09:59.272Z,100189.89
2023-04-15T00:12:33.856Z,100201.71
2023-04-15T00:15:10.436Z,100202.41
2023-04-15T00:17:44.132Z,100207.36
2023-04-15T00:20:17.751Z,100207.27
2023-04-15T00:22:51.263Z,100207.80
2023-04-15T00:25:24.738Z,100210.29
2023-04-15T00:27:58.514Z,100216.84
2023-04-15T00:30:32.495Z,100216.63
2023-04-15T00:33:06.665Z,100211.23
2023-04-15T00:35:40.652Z,100222.22
2023-04-15T00:38:14.772Z,100220.44
2023-04-15T00:40:48.745Z,100218.47
2023-04-15T00:43:22.816Z,100232.81
2023-04-15T00:45:58.007Z,100231.64
2023-04-15T00:48:31.774Z,100238.48
2023-04-15T00:51:05.107Z,100235.70
2023-04-15T00:53:38.609Z,100241.45
2023-04-15T00:56:12.154Z,100240.36
2023-04-15T00:58:45.615Z,100246.20
2023-04-15T01:01:20.345Z,100245.33
2023-04-15T01:03:55.151Z,100250.98
2023-04-15T01:06:29.289Z,100253.25
2023-04-15T01:09:03.637Z,100256.52
2023-04-15T01:11:37.945Z,100259.96
2023-04-15T01:14:12.961Z,100265.80
2023-04-15T01:16:48.178Z,100264.05
2023-04-15T01:19:22.841Z,100266.61
2023-04-15T01:21:56.478Z,100272.23
2023-04-15T01:24:31.811Z,100276.28
2023-04-15T01:27:05.992Z,100281.23
2023-04-15T01:29:40.711Z,100274.22
2023-04-15T01:32:14.033Z,100272.34
2023-04-15T01:35:05.807Z,100276.29
2023-04-15T01:37:53.063Z,100275.10
2023-04-15T01:40:25.839Z,100285.09
2023-04-15T01:43:01.442Z,100287.54
2023-04-15T01:45:36.511Z,100288.23
2023-04-15T01:48:12.552Z,100288.04
2023-04-15T01:50:47.530Z,100294.64
2023-04-15T01:53:22.437Z,100293.67
2023-04-15T01:55:57.603Z,100289.23
2023-04-15T01:58:32.669Z,100295.92
2023-04-15T02:01:07.763Z,100296.61
2023-04-15T02:03:42.992Z,100296.33
2023-04-15T02:06:18.561Z,100302.24
2023-04-15T02:08:53.490Z,100312.41
2023-04-15T02:11:28.440Z,100309.03
2023-04-15T02:14:04.284Z,100308.94
2023-04-15T02:16:39.158Z,100318.34
2023-04-15T02:19:15.605Z,100316.45
2023-04-15T02:21:50.464Z,100320.48
2023-04-15T02:24:25.463Z,100316.13
2023-04-15T02:27:01.322Z,100317.81
2023-04-15T02:29:36.620Z,100320.39
2023-04-15T02:32:12.263Z,100325.30
2023-04-15T02:34:47.080Z,100329.65
2023-04-15T02:37:22.399Z,100329.74
2023-04-15T02:39:57.463Z,100341.70
2023-04-15T02:42:32.747Z,100335.79
2023-04-15T02:45:09.859Z,100343.49
2023-04-15T02:47:46.134Z,100345.28
2023-04-15T02:50:21.245Z,100357.20
2023-04-15T02:52:56.213Z,100358.99
2023-04-15T02:55:31.142Z,100356.52
2023-04-15T02:58:06.040Z,100357.62
2023-04-15T03:00:40.972Z,100367.31
2023-04-15T03:03:16.441Z,100375.92
2023-04-15T03:05:51.719Z,100369.30
2023-04-15T03:08:27.169Z,100377.23
2023-04-15T03:11:03.360Z,100373.06
2023-04-15T03:13:39.776Z,100375.05
2023-04-15T03:16:16.468Z,100380.50
2023-04-15T03:18:51.726Z,100384.95
2023-04-15T03:21:27.952Z,100391.30
2023-04-15T03:24:03.175Z,100387.36
2023-04-15T03:26:37.813Z,100390.12
2023-04-15T03:29:20.353Z,100385.98
2023-04-15T03:31:56.403Z,100389.75
2023-04-15T03:34:31.627Z,100388.38
2023-04-15T03:37:06.983Z,100392.14
2023-04-15T03:39:41.920Z,100398.38
2023-04-15T03:42:16.705Z,100390.95
2023-04-15T03:44:51.701Z,100389.67
2023-04-15T03:47:28.790Z,100390.86
2023-04-15T03:50:03.500Z,100391.17
2023-04-15T03:52:38.127Z,100395.91
2023-04-15T03:55:13.510Z,100400.58
2023-04-15T03:57:48.354Z,100401.85
2023-04-15T04:00:23.714Z,100406.70
2023-04-15T04:02:59.481Z,100411.52
2023-04-15T04:05:36.002Z,100414.31
2023-04-15T04:08:13.162Z,100409.75
2023-04-15T04:10:49.069Z,100413.68
2023-04-15T04:13:24.089Z,100408.92
2023-04-15T04:15:58.995Z,100415.34
2023-04-15T04:18:37.504Z,100418.40
2023-04-15T04:21:12.848Z,100424.20
2023-04-15T04:23:47.601Z,100419.53
2023-04-15T04:26:23.099Z,100427.23
2023-04-15T04:29:01.301Z,100422.11
2023-04-15T04:31:36.726Z,100427.26
2023-04-15T04:34:21.352Z,100434.20
2023-04-15T04:36:57.263Z,100431.38
2023-04-15T04:39:32.966Z,100432.80
2023-04-15T04:42:07.752Z,100431.97
2023-04-15T04:44:42.790Z,100426.44
2023-04-15T04:47:35.243Z,100416.05
2023-04-15T04:50:29.294Z,100411.14
2023-04-15T04:53:05.652Z,100414.97
2023-04-15T04:55:40.924Z,100415.84
2023-04-15T04:58:16.047Z,100414.38
2023-04-15T05:00:51.348Z,100408.14
2023-04-15T05:03:26.505Z,100425.59
2023-04-15T05:06:03.495Z,100420.61
2023-04-15T05:08:40.405Z,100427.02
2023-04-15T05:11:15.665Z,100429.34
2023-04-15T05:13:51.100Z,100425.61
2023-04-15T05:16:26.215Z,100427.06
2023-04-15T05:19:01.644Z,100425.47
2023-04-15T05:21:38.285Z,100430.12
2023-04-15T05:24:12.953Z,100420.25
2023-04-15T05:26:48.209Z,100420.77
2023-04-15T05:29:23.160Z,100428.70
2023-04-15T05:31:58.784Z,100431.80
2023-04-15T05:34:33.843Z,100439.35
2023-04-15T05:37:08.655Z,100434.23
2023-04-15T05:39:44.694Z,100431.30
2023-04-15T05:42:20.044Z,100440.51
2023-04-15T05:44:55.410Z,100430.27
2023-04-15T05:47:30.486Z,100438.88
2023-04-15T05:50:06.795Z,100441.14
2023-04-15T05:52:42.432Z,100443.72
2023-04-15T05:55:17.440Z,100452.30
2023-04-15T05:57:52.391Z,100448.87
2023-04-15T06:00:27.527Z,100455.45
2023-04-15T06:03:04.439Z,100456.30
2023-04-15T06:05:53.874Z,100455.65
2023-04-15T06:08:33.112Z,100442.66
2023-04-15T06:11:10.129Z,100450.52
2023-04-15T06:13:48.233Z,100459.11
2023-04-15T06:16:24.145Z,100461.27
2023-04-15T06:18:58.908Z,100460.73
2023-04-15T06:21:33.899Z,100468.49
2023-04-15T06:24:09.318Z,100462.89
2023-04-15T06:26:44.448Z,100463.98
2023-04-15T06:29:19.484Z,100459.88
2023-04-15T06:31:54.664Z,100467.02
2023-04-15T06:34:29.682Z,100466.11
2023-04-15T06:37:06.231Z,100465.38
2023-04-15T06:39:41.678Z,100454.66
2023-04-15T06:42:16.851Z,100463.23
2023-04-15T06:47:33.638Z,100463.66
2023-04-15T06:50:10.285Z,100450.58
2023-04-15T06:52:45.455Z,100464.45
2023-04-15T06:55:20.187Z,100470.00
2023-04-15T06:57:54.594Z,100460.20
2023-04-15T07:00:29.618Z,100462.19
2023-04-15T07:03:04.993Z,100456.59
2023-04-15T07:05:42.394Z,100455.10
2023-04-15T07:08:23.320Z,100458.09
2023-04-15T07:11:00.803Z,100450.00
2023-04-15T07:13:36.549Z,100442.69
2023-04-15T07:16:27.181Z,100449.59
2023-04-15T07:19:04.650Z,100448.48
2023-04-15T07:24:23.519Z,100443.47
2023-04-15T07:27:00.850Z,100441.75
2023-04-15T07:29:35.551Z,100448.45
2023-04-15T07:32:11.714Z,100422.33
2023-04-15T07:34:47.215Z,100426.70
2023-04-15T07:37:21.928Z,100431.91
2023-04-15T07:39:56.921Z,100443.52
2023-04-15T07:42:31.647Z,100436.56
2023-04-15T07:45:07.663Z,100432.79
2023-04-15T07:47:42.816Z,100435.97
2023-04-15T07:50:19.998Z,100430.01
2023-04-15T07:52:54.846Z,100424.12
2023-04-15T07:55:30.788Z,100417.64
2023-04-15T07:58:05.655Z,100434.83
2023-04-15T08:00:40.439Z,100418.25
2023-04-15T08:03:15.893Z,100421.58
2023-04-15T08:05:51.073Z,100422.59
2023-04-15T08:08:26.448Z,100418.70
2023-04-15T08:11:02.210Z,100423.17
2023-04-15T08:13:37.279Z,100423.66
2023-04-15T08:16:21.083Z,100391.02
2023-04-15T08:22:17.724Z,100417.48
2023-04-15T08:25:16.177Z,100426.30
2023-04-15T08:27:54.577Z,100404.02
2023-04-15T08:30:30.402Z,100409.80
2023-04-15T08:33:05.541Z,100420.54
2023-04-15T08:35:40.580Z,100428.59
2023-04-15T08:38:15.692Z,100425.56
2023-04-15T08:40:51.959Z,100421.83
2023-04-15T08:43:30.470Z,100402.86
2023-04-15T08:46:05.878Z,100399.63
2023-04-15T08:48:41.964Z,100405.88
2023-04-15T08:51:17.460Z,100404.11
2023-04-15T08:53:53.113Z,100404.33
2023-04-15T08:56:29.694Z,100417.47
2023-04-15T08:59:05.765Z,100417.22
2023-04-15T09:01:41.686Z,100391.92
2023-04-15T09:04:18.212Z,100408.62
2023-04-15T09:06:53.416Z,100403.88
2023-04-15T09:09:29.275Z,100397.60
2023-04-15T09:12:05.297Z,100395.64
2023-04-15T09:14:41.744Z,100373.42
2023-04-15T09:17:18.120Z,100393.08
2023-04-15T09:20:09.462Z,100393.46
2023-04-15T09:22:45.622Z,100391.95
2023-04-15T09:25:34.960Z,100390.33
2023-04-15T09:28:10.035Z,100384.61
2023-04-15T09:30:49.746Z,100390.88
2023-04-15T09:33:25.115Z,100382.40
2023-04-15T09:36:04.980Z,100393.82
2023-04-15T09:38:50.210Z,100394.91
2023-04-15T09:41:25.843Z,100398.14
2023-04-15T09:44:26.382Z,100400.20
2023-04-15T09:47:01.477Z,100402.03
2023-04-15T09:49:36.253Z,100398.55
2023-04-15T09:52:10.645Z,100389.77
2023-04-15T09:54:46.512Z,100391.67
2023-04-15T09:57:21.918Z,100402.25
2023-04-15T09:59:56.199Z,100398.73
2023-04-15T10:02:32.161Z,100404.91
2023-04-15T10:05:08.637Z,100400.51
2023-04-15T10:07:43.709Z,100397.84
2023-04-15T10:10:18.305Z,100407.27
2023-04-15T10:12:53.826Z,100393.97
2023-04-15T10:15:30.124Z,100397.69
2023-04-15T10:18:07.345Z,100408.41
2023-04-15T10:20:42.816Z,100403.13
2023-04-15T10:23:18.944Z,100395.19
2023-04-15T10:25:55.465Z,100391.62
2023-04-15T10:28:30.299Z,100406.65
2023-04-15T10:31:06.229Z,100400.27
2023-04-15T10:33:41.044Z,100399.22
2023-04-15T10:36:17.004Z,100395.59
2023-04-15T10:38:51.308Z,100383.02
2023-04-15T10:41:28.177Z,100394.32
2023-04-15T10:44:05.346Z,100395.58
2023-04-15T10:46:42.998Z,100380.79
2023-04-15T10:49:19.828Z,100383.41
2023-04-15T10:51:57.781Z,100374.75
2023-04-15T10:57:24.422Z,100380.02
2023-04-15T11:00:13.149Z,100380.02
2023-04-15T11:02:49.257Z,100378.36
2023-04-15T11:05:24.696Z,100383.78
2023-04-15T11:07:59.587Z,100389.06
2023-04-15T11:10:57.719Z,100380.97
2023-04-15T11:13:34.425Z,100385.05
2023-04-15T11:16:09.461Z,100374.11
2023-04-15T11:18:44.212Z,100376.32
2023-04-15T11:21:18.765Z,100372.92
2023-04-15T11:23:53.438Z,100378.27
2023-04-15T11:26:29.724Z,100382.53
2023-04-15T11:29:05.604Z,100367.45
2023-04-15T11:31:40.724Z,100365.77
2023-04-15T11:34:16.664Z,100358.32
2023-04-15T11:36:51.991Z,100345.73
2023-04-15T11:39:26.520Z,100351.70
2023-04-15T11:44:42.893Z,100341.52
2023-04-15T11:47:26.485Z,100344.80
2023-04-15T11:50:10.751Z,100349.92
2023-04-15T11:52:45.683Z,100356.80
2023-04-15T11:55:19.837Z,100329.76
2023-04-15T11:58:09.716Z,100340.42
2023-04-15T12:00:45.038Z,100347.54
2023-04-15T12:03:21.548Z,100339.70
2023-04-15T12:06:10.608Z,100329.00
2023-04-15T12:09:07.529Z,100329.81
2023-04-15T12:11:43.324Z,100326.11
2023-04-15T12:14:20.638Z,100320.82
2023-04-15T12:16:58.460Z,100327.34
2023-04-15T12:19:36.147Z,100319.29
2023-04-15T12:22:10.996Z,100327.70
2023-04-15T12:24:47.074Z,100318.19
2023-04-15T12:27:21.311Z,100328.25
2023-04-15T12:29:57.906Z,100308.23
2023-04-15T12:32:31.830Z,100309.17
2023-04-15T12:35:05.349Z,100319.33
2023-04-15T12:37:38.636Z,100311.19
2023-04-15T12:40:13.495Z,100313.91
2023-04-15T12:42:47.625Z,100319.77
2023-04-15T12:45:21.532Z,100309.95
2023-04-15T12:47:55.047Z,100320.78
2023-04-15T12:50:29.136Z,100325.37
2023-04-15T12:53:02.861Z,100325.25
2023-04-15T12:55:36.496Z,100325.50
2023-04-15T12:58:11.816Z,100321.23
2023-04-15T13:00:45.576Z,100316.88
2023-04-15T13:03:19.337Z,100313.38
2023-04-15T13:08:42.556Z,100317.72
2023-04-15T13:11:14.570Z,100316.94
2023-04-15T13:13:48.545Z,100308.72
2023-04-15T13:16:22.290Z,100303.65
2023-04-15T13:18:55.743Z,100310.23
2023-04-15T13:21:29.366Z,100312.73
2023-04-15T13:24:03.505Z,100305.48
2023-04-15T13:26:38.133Z,100318.18
2023-04-15T13:29:12.745Z,100309.27
2023-04-15T13:31:46.255Z,100304.75
2023-04-15T13:34:19.938Z,100310.92
2023-04-15T13:36:53.523Z,100311.45
2023-04-15T13:39:27.473Z,100311.11
2023-04-15T13:42:01.219Z,100304.80
2023-04-15T13:44:34.784Z,100306.30
2023-04-15T13:47:08.685Z,100301.70
2023-04-15T13:49:44.126Z,100311.47
2023-04-15T13:52:17.652Z,100314.84
2023-04-15T13:55:07.692Z,100318.94
2023-04-15T13:57:26.781Z,100316.11
2023-04-15T14:00:00.723Z,100317.55
2023-04-15T14:02:35.103Z,100303.87
2023-04-15T14:05:09.859Z,100303.95
2023-04-15T14:07:43.324Z,100307.20
2023-04-15T14:10:16.848Z,100309.89
2023-04-15T14:12:51.703Z,100298.80
2023-04-15T14:15:25.304Z,100304.92
2023-04-15T14:17:58.997Z,100302.44
2023-04-15T14:20:32.813Z,100308.55
2023-04-15T14:23:06.599Z,100313.66
2023-04-15T14:25:40.189Z,100314.33
2023-04-15T14:28:13.495Z,100310.86
2023-04-15T14:30:47.188Z,100301.41
2023-04-15T14:33:21.247Z,100310.61
2023-04-15T14:35:55.486Z,100303.80
2023-04-15T14:38:29.081Z,100322.16
2023-04-15T14:41:03.093Z,100318.59
2023-04-15T14:43:37.075Z,100319.38
2023-04-15T14:46:10.788Z,100315.52
2023-04-15T14:48:44.657Z,100321.50
2023-04-15T14:51:17.922Z,100313.50
2023-04-15T14:53:51.168Z,100323.88
2023-04-15T14:56:24.664Z,100321.17
2023-04-15T14:58:58.190Z,100319.26
2023-04-15T15:01:31.854Z,100303.34
2023-04-15T15:04:09.613Z,100313.06
2023-04-15T15:06:46.730Z,100305.02
2023-04-15T15:09:22.307Z,100312.72
2023-04-15T15:11:57.176Z,100309.25
2023-04-15T15:14:31.206Z,100307.57
2023-04-15T15:17:04.929Z,100301.55
2023-04-15T15:19:38.521Z,100305.02
2023-04-15T15:22:12.736Z,100308.41
2023-04-15T15:24:46.068Z,100307.48
2023-04-15T15:27:19.879Z,100300.69
2023-04-15T15:29:53.518Z,100304.84
2023-04-15T15:32:27.214Z,100300.22
2023-04-15T15:35:00.591Z,100297.17
2023-04-15T15:37:36.420Z,100308.59
2023-04-15T15:40:12.264Z,100306.71
2023-04-15T15:42:47.467Z,100303.66
2023-04-15T15:45:21.361Z,100308.53
2023-04-15T15:47:56.573Z,100298.64
2023-04-15T15:50:30.398Z,100310.45
2023-04-15T15:53:04.116Z,100318.28
2023-04-15T15:55:37.421Z,100314.83
2023-04-15T15:58:13.612Z,100312.62
2023-04-15T16:00:47.264Z,100312.10
2023-04-15T16:03:25.759Z,100312.23
2023-04-15T16:06:00.914Z,100308.92
2023-04-15T16:08:34.527Z,100318.46
2023-04-15T16:11:08.075Z,100323.05
2023-04-15T16:13:41.632Z,100318.06
2023-04-15T16:16:15.294Z,100318.42
2023-04-15T16:18:49.040Z,100331.00
2023-04-15T16:21:24.633Z,100327.34
2023-04-15T16:23:58.574Z,100333.17
2023-04-15T16:26:32.281Z,100332.84
2023-04-15T16:29:09.150Z,100336.13
2023-04-15T16:31:42.952Z,100334.99
2023-04-15T16:34:17.637Z,100342.47
2023-04-15T16:36:51.361Z,100335.32
2023-04-15T16:39:26.599Z,100335.13
2023-04-15T16:42:00.405Z,100335.72
2023-04-15T16:44:34.581Z,100329.55
2023-04-15T16:47:09.973Z,100338.08
2023-04-15T16:49:43.830Z,100342.37
2023-04-15T16:52:19.753Z,100332.70
2023-04-15T16:54:53.242Z,100331.91
2023-04-15T16:57:29.633Z,100336.42
2023-04-15T17:00:02.420Z,100338.08
2023-04-15T17:02:36.170Z,100335.31
2023-04-15T17:05:11.462Z,100335.03
2023-04-15T17:07:46.285Z,100338.22
2023-04-15T17:10:20.200Z,100340.73
2023-04-15T17:12:53.527Z,100340.91
2023-04-15T17:15:34.065Z,100343.83
2023-04-15T17:18:14.390Z,100342.22
2023-04-15T17:21:17.868Z,100340.23
2023-04-15T17:24:04.246Z,100333.09
2023-04-15T17:26:44.444Z,100341.81
2023-04-15T17:29:21.956Z,100345.28
2023-04-15T17:31:57.684Z,100345.28
2023-04-15T17:34:51.374Z,100345.28
2023-04-15T17:37:29.749Z,100344.45
2023-04-15T17:40:08.472Z,100352.19
2023-04-15T17:45:36.947Z,100352.89
2023-04-15T17:50:57.641Z,100357.66
2023-04-15T17:53:36.206Z,100360.53
2023-04-15T17:56:18.103Z,100355.11
2023-04-15T17:58:56.348Z,100352.28
2023-04-15T18:01:34.192Z,100362.60
2023-04-15T18:04:24.854Z,100361.55
2023-04-15T18:07:07.478Z,100368.31
2023-04-15T18:10:07.861Z,100370.69
2023-04-15T18:12:49.922Z,100369.64
2023-04-15T18:15:36.796Z,100365.06
2023-04-15T18:18:14.677Z,100367.44
2023-04-15T18:20:55.378Z,100372.41
2023-04-15T18:23:33.617Z,100374.00
2023-04-15T18:26:05.892Z,100374.77
2023-04-15T18:28:41.956Z,100369.42
2023-04-15T18:31:15.804Z,100373.52
2023-04-15T18:33:56.868Z,100378.66
2023-04-15T18:36:58.636Z,100375.83
2023-04-15T18:39:39.253Z,100366.67
2023-04-15T18:42:20.516Z,100374.23
2023-04-15T18:45:11.510Z,100373.17
2023-04-15T18:47:57.168Z,100373.17
2023-04-15T18:50:30.643Z,100387.94
2023-04-15T18:53:04.104Z,100379.02
2023-04-15T18:55:37.931Z,100386.67
2023-04-15T18:58:11.599Z,100378.88
2023-04-15T19:00:45.496Z,100384.68
2023-04-15T19:03:18.762Z,100395.73
2023-04-15T19:05:52.395Z,100389.46
2023-04-15T19:08:25.842Z,100384.38
2023-04-15T19:10:59.590Z,100394.77
2023-04-15T19:13:33.111Z,100390.39
2023-04-15T19:16:07.524Z,100389.32
2023-04-15T19:18:40.955Z,100389.32
2023-04-15T19:21:16.253Z,100396.23
2023-04-15T19:23:50.253Z,100391.09
2023-04-15T19:26:23.946Z,100393.59
2023-04-15T19:28:59.003Z,100398.58
2023-04-15T19:31:32.604Z,100386.05
2023-04-15T19:34:09.272Z,100388.16
2023-04-15T19:36:42.706Z,100395.69
2023-04-15T19:39:16.338Z,100392.94
2023-04-15T19:41:49.925Z,100398.89
2023-04-15T19:44:23.614Z,100399.53
2023-04-15T19:46:57.372Z,100400.29
2023-04-15T19:49:31.514Z,100398.39
2023-04-15T19:52:05.487Z,100406.98
2023-04-15T19:54:38.816Z,100410.40
2023-04-15T19:57:12.520Z,100406.72
2023-04-15T19:59:46.298Z,100409.98
2023-04-15T20:02:19.946Z,100409.98
2023-04-15T20:04:53.565Z,100402.19
2023-04-15T20:07:27.506Z,100401.26
2023-04-15T20:10:01.442Z,100414.89
2023-04-15T20:12:50.465Z,100419.09
2023-04-15T20:15:12.714Z,100412.00
2023-04-15T20:17:46.288Z,100421.47
2023-04-15T20:20:19.911Z,100419.56
2023-04-15T20:22:55.897Z,100422.97
2023-04-15T20:25:29.169Z,100423.87
2023-04-15T20:28:03.172Z,100428.03
2023-04-15T20:30:37.465Z,100431.56
2023-04-15T20:33:11.051Z,100427.88
2023-04-15T20:35:44.614Z,100422.69
2023-04-15T20:38:18.170Z,100433.81
2023-04-15T20:40:51.921Z,100436.34
2023-04-15T20:43:26.248Z,100421.59
2023-04-15T20:46:09.939Z,100430.88
2023-04-15T20:48:35.478Z,100429.12
2023-04-15T20:51:09.083Z,100421.88
2023-04-15T20:53:42.759Z,100429.53
2023-04-15T20:56:16.589Z,100436.21
2023-04-15T20:58:50.118Z,100441.33
2023-04-15T21:01:23.801Z,100437.83
2023-04-15T21:03:57.902Z,100435.92
2023-04-15T21:06:34.264Z,100436.61
2023-04-15T21:09:08.801Z,100434.83
2023-04-15T21:11:57.350Z,100438.97
2023-04-15T21:14:18.343Z,100440.46
2023-04-15T21:16:53.406Z,100444.64
2023-04-15T21:19:27.380Z,100445.97
2023-04-15T21:22:01.469Z,100449.23
2023-04-15T21:24:35.212Z,100438.73
2023-04-15T21:27:08.569Z,100441.09
2023-04-15T21:32:26.746Z,100446.51
2023-04-15T21:35:01.940Z,100454.48
2023-04-15T21:37:35.441Z,100452.73
2023-04-15T21:40:11.757Z,100462.26
2023-04-15T21:42:45.753Z,100458.73
2023-04-15T21:45:20.035Z,100462.12
2023-04-15T21:48:00.438Z,100463.73
2023-04-15T21:50:28.637Z,100468.92
2023-04-15T21:53:02.556Z,100465.22
2023-04-15T21:55:36.195Z,100464.27
2023-04-15T21:58:09.697Z,100470.13
2023-04-15T22:00:43.233Z,100473.34
2023-04-15T22:03:17.321Z,100470.63
2023-04-15T22:05:51.078Z,100472.34
2023-04-15T22:08:26.903Z,100477.34
2023-04-15T22:11:00.253Z,100476.47
2023-04-15T22:13:33.758Z,100481.50
2023-04-15T22:16:07.421Z,100476.22
2023-04-15T22:18:41.365Z,100477.80
2023-04-15T22:21:15.412Z,100483.84
2023-04-15T22:23:50.601Z,100473.42
2023-04-15T22:26:24.006Z,100485.46
2023-04-15T22:28:57.449Z,100474.83
2023-04-15T22:34:17.823Z,100483.71
2023-04-15T22:36:51.846Z,100490.77
2023-04-15T22:39:25.663Z,100490.63
2023-04-15T22:41:59.448Z,100486.26
2023-04-15T22:44:33.102Z,100495.63
2023-04-15T22:47:06.770Z,100491.11
2023-04-15T22:49:40.803Z,100496.22
2023-04-15T22:52:29.396Z,100498.73
2023-04-15T22:54:53.459Z,100495.16
2023-04-15T22:57:27.993Z,100496.77
2023-04-15T23:00:01.260Z,100500.19
2023-04-15T23:02:36.708Z,100505.37
2023-04-15T23:05:12.668Z,100498.55
2023-04-15T23:07:46.633Z,100503.66
2023-04-15T23:10:20.557Z,100500.19
2023-04-15T23:12:54.371Z,100502.85
2023-04-15T23:15:27.930Z,100502.78
2023-04-15T23:18:02.329Z,100513.93
2023-04-15T23:20:36.239Z,100513.86
2023-04-15T23:23:09.751Z,100516.34
2023-04-15T23:25:43.520Z,100517.17
2023-04-15T23:28:17.217Z,100520.56
2023-04-15T23:30:51.123Z,100520.38
2023-04-15T23:33:24.811Z,100519.43
2023-04-15T23:35:58.638Z,100522.82
2023-04-15T23:38:32.332Z,100526.94
2023-04-15T23:41:07.429Z,100530.25
2023-04-15T23:43:41.099Z,100523.06
2023-04-15T23:46:15.040Z,100533.34
2023-04-15T23:48:49.263Z,100536.73
2023-04-15T23:51:22.756Z,100533.16
2023-04-15T23:53:56.417Z,100536.39
2023-04-15T23:56:29.996Z,100541.48
2023-04-15T23:59:03.270Z,100539.47
